Time;durP1;ratioP1;P1;durP2;ratioP2;P2;SDS_P1;SDS_P2;PMS_P1;PMS_P2;Temp;Humidity;BMP_temperature;BMP_pressure;BME280_temperature;BME280_humidity;BME280_pressure;Samples;Min_cycle;Max_cycle;Signal;HPM_P1;HPM_P2
2022/10/25 00:00:40;;;;;;;6.20;2.60;;;13.60;99.90;;;;;;5044077;28;20579;-62
2022/10/25 00:03:09;;;;;;;4.25;2.88;;;13.60;99.90;;;;;;5026542;28;20422;-62
2022/10/25 00:05:37;;;;;;;4.30;2.47;;;13.60;99.90;;;;;;5015605;28;20233;-62
2022/10/25 00:08:04;;;;;;;5.00;2.78;;;13.60;99.90;;;;;;5031128;28;20205;-63
2022/10/25 00:10:32;;;;;;;4.63;2.92;;;13.60;99.90;;;;;;5036063;28;20235;-62
2022/10/25 00:12:58;;;;;;;5.47;2.75;;;13.60;99.90;;;;;;5022831;28;20211;-65
2022/10/25 00:15:25;;;;;;;8.43;3.17;;;13.60;99.90;;;;;;5045757;28;20208;-62
2022/10/25 00:17:53;;;;;;;7.97;3.38;;;13.60;99.90;;;;;;5033792;28;20737;-62
2022/10/25 00:20:21;;;;;;;9.65;3.65;;;13.60;99.90;;;;;;5014371;28;20211;-62
2022/10/25 00:22:48;;;;;;;6.28;3.50;;;13.60;99.90;;;;;;5031066;28;20221;-62
2022/10/25 00:25:14;;;;;;;7.32;3.42;;;13.60;99.90;;;;;;5025917;28;20525;-62
2022/10/25 00:27:41;;;;;;;7.72;3.58;;;13.60;99.90;;;;;;5020148;28;20203;-61
2022/10/25 00:30:09;;;;;;;6.50;3.38;;;13.60;99.90;;;;;;5026043;28;20197;-62
2022/10/25 00:32:36;;;;;;;4.40;2.90;;;13.60;99.90;;;;;;5047516;28;20201;-62
2022/10/25 00:35:04;;;;;;;6.88;2.72;;;13.70;99.90;;;;;;5017518;28;20716;-62
2022/10/25 00:37:32;;;;;;;7.30;2.35;;;13.70;99.90;;;;;;5010860;28;20204;-62
2022/10/25 00:39:59;;;;;;;4.22;2.42;;;13.70;99.90;;;;;;5017901;28;20306;-62
2022/10/25 00:42:26;;;;;;;2.85;2.20;;;13.80;99.90;;;;;;5033732;28;20192;-62
2022/10/25 00:44:56;;;;;;;5.45;2.42;;;13.80;99.90;;;;;;5032486;28;20220;-62
2022/10/25 00:47:42;;;;;;;7.45;2.70;;;13.80;99.90;;;;;;5042681;28;20316;-62
2022/10/25 00:50:35;;;;;;;10.02;3.33;;;13.80;99.90;;;;;;5019726;28;20218;-62
2022/10/25 00:53:08;;;;;;;6.82;3.28;;;13.90;99.90;;;;;;4995831;28;20212;-62
2022/10/25 00:55:36;;;;;;;6.28;3.50;;;13.90;99.90;;;;;;5036390;28;20220;-61
2022/10/25 00:58:08;;;;;;;5.70;4.07;;;13.90;99.90;;;;;;5021620;28;20415;-62
2022/10/25 01:00:36;;;;;;;14.65;4.88;;;13.90;99.90;;;;;;5035524;28;20217;-62
2022/10/25 01:03:03;;;;;;;8.32;4.30;;;13.90;99.90;;;;;;5044717;28;20420;-62
2022/10/25 01:05:31;;;;;;;10.23;4.63;;;14.00;99.90;;;;;;5030781;28;20240;-62
2022/10/25 01:07:58;;;;;;;8.75;4.70;;;14.00;99.90;;;;;;5012023;28;20682;-61
2022/10/25 01:10:27;;;;;;;8.30;4.53;;;13.90;99.90;;;;;;5026882;28;20402;-62
2022/10/25 01:12:54;;;;;;;9.73;3.88;;;14.00;99.90;;;;;;5028594;28;20197;-62
2022/10/25 01:15:24;;;;;;;12.60;5.10;;;14.00;99.90;;;;;;5024384;28;20519;-62
2022/10/25 01:18:03;;;;;;;7.78;4.60;;;14.00;99.90;;;;;;5043866;28;20581;-62
2022/10/25 01:21:05;;;;;;;8.20;4.57;;;14.10;99.90;;;;;;5022036;28;20205;-62
2022/10/25 01:23:55;;;;;;;9.32;4.65;;;14.10;99.90;;;;;;5011346;28;20204;-62
2022/10/25 01:26:46;;;;;;;11.85;5.10;;;14.10;99.90;;;;;;5031688;28;20224;-61
2022/10/25 01:29:33;;;;;;;10.98;4.68;;;14.10;99.90;;;;;;5034723;28;20204;-61
2022/10/25 01:32:06;;;;;;;11.48;5.10;;;14.10;99.90;;;;;;5026746;28;20836;-62
2022/10/25 01:34:41;;;;;;;8.32;5.30;;;14.10;99.90;;;;;;5032992;28;20193;-62
2022/10/25 01:37:13;;;;;;;8.07;5.32;;;14.10;99.90;;;;;;5027595;28;20207;-62
2022/10/25 01:39:46;;;;;;;8.35;5.75;;;14.10;99.90;;;;;;4997381;28;20467;-62
2022/10/25 01:42:20;;;;;;;13.65;5.90;;;14.10;99.90;;;;;;5039260;28;20201;-62
2022/10/25 01:44:55;;;;;;;7.32;5.72;;;14.10;99.90;;;;;;5027607;28;20395;-62
2022/10/25 01:47:29;;;;;;;11.18;6.22;;;14.10;99.90;;;;;;5028489;28;20281;-62
2022/10/25 01:50:00;;;;;;;10.02;6.30;;;14.00;99.90;;;;;;5036536;28;20208;-62
2022/10/25 01:52:27;;;;;;;10.50;6.25;;;14.10;99.90;;;;;;5007353;28;20212;-62
2022/10/25 01:54:54;;;;;;;11.07;6.68;;;14.10;99.90;;;;;;5027629;28;20200;-62
2022/10/25 01:57:35;;;;;;;9.13;5.65;;;14.10;99.90;;;;;;5028179;28;20526;-62
2022/10/25 02:00:07;;;;;;;8.93;6.00;;;14.10;99.90;;;;;;5026239;28;20681;-62
2022/10/25 02:02:46;;;;;;;19.10;7.00;;;14.10;99.90;;;;;;5016265;28;20291;-62
2022/10/25 02:05:21;;;;;;;10.98;6.32;;;14.10;99.90;;;;;;5022775;28;20224;-61
2022/10/25 02:07:54;;;;;;;9.98;6.38;;;14.10;99.90;;;;;;5030819;28;20219;-61
2022/10/25 02:10:25;;;;;;;13.43;7.05;;;14.10;99.90;;;;;;4989996;28;20950;-62
2022/10/25 02:12:56;;;;;;;13.48;7.22;;;14.10;99.90;;;;;;5029761;28;20247;-62
2022/10/25 02:15:30;;;;;;;11.88;6.82;;;14.10;99.90;;;;;;5023552;28;20582;-62
2022/10/25 02:18:00;;;;;;;12.10;5.93;;;14.10;99.90;;;;;;5025715;28;20252;-62
2022/10/25 02:20:32;;;;;;;10.45;6.97;;;14.00;99.90;;;;;;5027947;28;20567;-62
2022/10/25 02:23:03;;;;;;;13.68;7.78;;;14.10;99.90;;;;;;5022213;28;20748;-62
2022/10/25 02:25:32;;;;;;;12.52;7.85;;;14.10;99.90;;;;;;4991598;28;20730;-62
2022/10/25 02:28:03;;;;;;;14.57;8.27;;;14.10;99.90;;;;;;5028231;28;20209;-62
2022/10/25 02:30:33;;;;;;;13.25;8.10;;;14.00;99.90;;;;;;5031317;28;20201;-62
2022/10/25 02:33:02;;;;;;;11.63;8.05;;;14.10;99.90;;;;;;5019565;28;20950;-62
2022/10/25 02:35:28;;;;;;;14.65;8.13;;;14.10;99.90;;;;;;5035281;28;20213;-62
2022/10/25 02:37:55;;;;;;;16.55;7.88;;;14.10;99.90;;;;;;5033560;28;20208;-61
2022/10/25 02:40:22;;;;;;;15.18;8.45;;;14.10;99.90;;;;;;5007201;28;20224;-62
2022/10/25 02:42:49;;;;;;;11.30;7.68;;;14.00;99.90;;;;;;5022946;28;20209;-62
2022/10/25 02:45:16;;;;;;;15.18;7.43;;;14.00;99.90;;;;;;5034981;28;20229;-62
2022/10/25 02:47:43;;;;;;;9.55;7.22;;;14.00;99.90;;;;;;5011984;28;20663;-63
2022/10/25 02:50:11;;;;;;;11.50;6.60;;;14.00;99.90;;;;;;5023121;28;20647;-62
2022/10/25 02:52:38;;;;;;;15.20;6.82;;;14.00;99.90;;;;;;5043802;28;20204;-62
2022/10/25 02:55:06;;;;;;;12.40;6.50;;;14.00;99.90;;;;;;4999082;28;20680;-62
2022/10/25 02:57:34;;;;;;;13.73;5.85;;;14.00;99.90;;;;;;5048552;28;20204;-62
2022/10/25 03:00:00;;;;;;;14.63;6.82;;;14.00;99.90;;;;;;5025940;28;20716;-62
2022/10/25 03:02:27;;;;;;;12.82;7.22;;;14.00;99.90;;;;;;5038215;28;20193;-62
2022/10/25 03:04:54;;;;;;;11.70;7.18;;;14.00;99.90;;;;;;5032134;28;20212;-62
2022/10/25 03:07:22;;;;;;;10.77;6.63;;;14.00;99.90;;;;;;5050611;28;20235;-62
2022/10/25 03:09:49;;;;;;;11.20;6.85;;;14.00;99.90;;;;;;5026454;28;20625;-62
2022/10/25 03:12:16;;;;;;;14.43;6.65;;;14.00;99.90;;;;;;5020617;28;20215;-62
2022/10/25 03:14:42;;;;;;;15.00;7.32;;;14.00;99.90;;;;;;5032681;28;20533;-62
2022/10/25 03:17:09;;;;;;;11.07;7.00;;;14.00;99.90;;;;;;5036131;28;20242;-62
2022/10/25 03:19:36;;;;;;;13.18;7.22;;;14.00;99.90;;;;;;5018072;28;20200;-62
2022/10/25 03:22:03;;;;;;;13.70;7.53;;;14.00;99.90;;;;;;5043554;28;20310;-62
2022/10/25 03:24:31;;;;;;;10.88;7.07;;;14.00;99.90;;;;;;5042585;28;20204;-62
2022/10/25 03:26:58;;;;;;;13.13;8.05;;;14.00;99.90;;;;;;5001913;28;20235;-63
2022/10/25 03:29:25;;;;;;;18.55;8.20;;;14.00;99.90;;;;;;5034676;28;20200;-62
2022/10/25 03:31:51;;;;;;;11.55;7.13;;;14.00;99.90;;;;;;5030749;28;20736;-62
2022/10/25 03:34:18;;;;;;;14.52;7.78;;;13.90;99.90;;;;;;5021300;28;20657;-62
2022/10/25 03:36:45;;;;;;;14.43;7.60;;;13.90;99.90;;;;;;5041321;28;21321;-62
2022/10/25 03:39:13;;;;;;;10.68;8.32;;;13.90;99.90;;;;;;5044005;28;20197;-62
2022/10/25 03:41:41;;;;;;;11.15;6.88;;;13.80;99.90;;;;;;5006999;28;20209;-62
2022/10/25 03:44:08;;;;;;;15.27;8.82;;;13.80;99.90;;;;;;5024046;28;20223;-62
2022/10/25 03:46:35;;;;;;;14.07;8.02;;;13.80;99.90;;;;;;5033745;28;20232;-62
2022/10/25 03:49:01;;;;;;;18.67;8.07;;;13.80;99.90;;;;;;5028687;28;20728;-62
2022/10/25 03:51:28;;;;;;;11.15;7.63;;;13.90;99.90;;;;;;5046504;28;20224;-62
2022/10/25 03:53:55;;;;;;;15.48;7.97;;;13.90;99.90;;;;;;5048072;28;20272;-62
2022/10/25 03:56:22;;;;;;;14.43;8.25;;;13.80;99.90;;;;;;5032322;28;20212;-62
2022/10/25 03:58:50;;;;;;;12.35;7.63;;;13.80;99.90;;;;;;4992147;28;20317;-62
2022/10/25 04:01:17;;;;;;;14.25;8.32;;;13.80;99.90;;;;;;5047519;28;20219;-62
2022/10/25 04:03:44;;;;;;;13.35;7.45;;;13.80;99.90;;;;;;5024134;28;20217;-62
2022/10/25 04:06:11;;;;;;;13.35;8.25;;;13.80;99.90;;;;;;5042039;28;20219;-61
2022/10/25 04:08:38;;;;;;;12.23;7.03;;;13.80;99.90;;;;;;5044910;28;20200;-62
2022/10/25 04:11:05;;;;;;;15.90;7.85;;;13.80;99.90;;;;;;5043544;28;20189;-62
2022/10/25 04:13:32;;;;;;;14.60;8.63;;;13.90;99.90;;;;;;5000043;28;21326;-62
2022/10/25 04:16:00;;;;;;;14.23;8.45;;;13.90;99.90;;;;;;5034922;28;20680;-62
2022/10/25 04:18:26;;;;;;;15.00;8.18;;;13.90;99.90;;;;;;5027688;28;20596;-63
2022/10/25 04:20:53;;;;;;;16.08;8.70;;;14.00;99.90;;;;;;5026264;28;20204;-62
2022/10/25 04:23:20;;;;;;;10.68;8.25;;;14.00;99.90;;;;;;5043378;28;20189;-62
2022/10/25 04:25:47;;;;;;;10.43;7.90;;;14.00;99.90;;;;;;5025697;28;20229;-62
2022/10/25 04:28:15;;;;;;;11.07;8.25;;;14.00;99.90;;;;;;5032623;28;20209;-62
2022/10/25 04:30:42;;;;;;;19.58;7.43;;;14.10;99.90;;;;;;4998794;28;20712;-62
2022/10/25 04:33:10;;;;;;;18.23;8.02;;;14.10;99.90;;;;;;5034964;28;20211;-62
2022/10/25 04:35:37;;;;;;;13.95;7.95;;;14.00;99.90;;;;;;5026057;28;20212;-62
2022/10/25 04:38:03;;;;;;;16.77;8.32;;;14.10;99.90;;;;;;5046115;28;20332;-62
2022/10/25 04:40:30;;;;;;;12.63;8.00;;;14.10;99.90;;;;;;5041705;28;20212;-62
2022/10/25 04:43:01;;;;;;;17.90;8.05;;;14.10;99.90;;;;;;5040922;28;20193;-62
2022/10/25 04:45:28;;;;;;;15.80;9.13;;;14.10;99.90;;;;;;4996881;28;20744;-61
2022/10/25 04:47:54;;;;;;;13.23;8.50;;;14.10;99.90;;;;;;5021046;28;21065;-62
2022/10/25 04:50:23;;;;;;;16.17;8.23;;;14.20;99.90;;;;;;5034245;28;20254;-62
2022/10/25 04:52:49;;;;;;;9.18;7.25;;;14.20;99.90;;;;;;5026247;28;20193;-62
2022/10/25 04:55:16;;;;;;;12.88;8.35;;;14.20;99.90;;;;;;5047212;28;20193;-62
2022/10/25 04:57:43;;;;;;;11.35;8.27;;;14.20;99.90;;;;;;5043265;28;20311;-62
2022/10/25 05:00:11;;;;;;;12.48;7.63;;;14.20;99.90;;;;;;5010349;28;20220;-62
2022/10/25 05:02:38;;;;;;;13.68;8.77;;;14.20;99.90;;;;;;5002863;28;20524;-62
2022/10/25 05:05:05;;;;;;;13.68;8.65;;;14.30;99.90;;;;;;5038296;28;20205;-62
2022/10/25 05:07:34;;;;;;;13.65;9.43;;;14.20;99.90;;;;;;5006475;28;20453;-62
2022/10/25 05:10:00;;;;;;;13.13;8.88;;;14.20;99.90;;;;;;5039785;28;20228;-62
2022/10/25 05:12:27;;;;;;;14.40;10.05;;;14.30;99.90;;;;;;5018574;28;20596;-62
2022/10/25 05:14:54;;;;;;;14.95;9.02;;;14.30;99.90;;;;;;5036914;28;20236;-62
2022/10/25 05:17:21;;;;;;;16.05;9.90;;;14.30;99.90;;;;;;5005038;28;20228;-62
2022/10/25 05:19:47;;;;;;;11.40;9.10;;;14.30;99.90;;;;;;5029254;28;20685;-62
2022/10/25 05:22:14;;;;;;;12.75;9.13;;;14.30;99.90;;;;;;5009500;28;20551;-63
2022/10/25 05:24:42;;;;;;;11.55;8.32;;;14.30;99.90;;;;;;5039809;28;20843;-62
2022/10/25 05:27:09;;;;;;;12.45;7.57;;;14.30;99.90;;;;;;5047258;28;20236;-62
2022/10/25 05:29:36;;;;;;;10.50;7.15;;;14.30;99.90;;;;;;5038935;28;20196;-62
2022/10/25 05:32:03;;;;;;;18.20;8.27;;;14.30;99.90;;;;;;5006343;28;20310;-62
2022/10/25 05:34:30;;;;;;;11.43;7.43;;;14.30;99.90;;;;;;5017196;28;20202;-62
2022/10/25 05:36:57;;;;;;;11.57;7.25;;;14.30;99.90;;;;;;5018229;28;20418;-62
2022/10/25 05:39:24;;;;;;;14.77;7.47;;;14.40;99.90;;;;;;5038094;28;20197;-62
2022/10/25 05:41:52;;;;;;;12.82;7.35;;;14.40;99.90;;;;;;5037252;28;20200;-62
2022/10/25 05:44:19;;;;;;;10.88;7.32;;;14.30;99.90;;;;;;5036498;28;20205;-62
2022/10/25 05:46:46;;;;;;;10.68;7.15;;;14.30;99.90;;;;;;5016649;28;20236;-62
2022/10/25 05:49:13;;;;;;;13.32;7.80;;;14.40;99.90;;;;;;5011101;28;20810;-62
2022/10/25 05:51:39;;;;;;;11.68;6.68;;;14.40;99.90;;;;;;5032834;28;20197;-62
2022/10/25 05:54:09;;;;;;;13.50;7.43;;;14.30;99.90;;;;;;5033918;28;20200;-63
2022/10/25 05:56:36;;;;;;;13.48;7.10;;;14.30;99.90;;;;;;5034716;28;20674;-62
2022/10/25 05:59:07;;;;;;;15.48;7.88;;;14.40;99.90;;;;;;5044566;28;20225;-62
2022/10/25 06:01:35;;;;;;;14.32;8.13;;;14.30;99.90;;;;;;5004906;28;20261;-62
2022/10/25 06:04:02;;;;;;;12.15;6.38;;;14.40;99.90;;;;;;4998353;28;20205;-62
2022/10/25 06:06:29;;;;;;;9.88;7.57;;;14.30;99.90;;;;;;5012535;28;20667;-63
2022/10/25 06:08:57;;;;;;;11.88;7.30;;;14.40;99.90;;;;;;4997852;28;20198;-62
2022/10/25 06:11:25;;;;;;;12.90;7.60;;;14.40;99.90;;;;;;5023614;28;20227;-62
2022/10/25 06:13:52;;;;;;;14.77;7.57;;;14.40;99.90;;;;;;5033677;28;20882;-62
2022/10/25 06:16:21;;;;;;;16.73;6.90;;;14.40;99.90;;;;;;5033896;28;20204;-62
2022/10/25 06:18:48;;;;;;;16.00;7.13;;;14.40;99.90;;;;;;4991791;28;20554;-62
2022/10/25 06:21:17;;;;;;;9.80;7.15;;;14.30;99.90;;;;;;4982366;28;20538;-62
2022/10/25 06:23:44;;;;;;;10.68;6.53;;;14.30;99.90;;;;;;5015989;28;20197;-61
2022/10/25 06:26:13;;;;;;;10.20;6.88;;;14.30;99.90;;;;;;5014736;28;20610;-62
2022/10/25 06:28:40;;;;;;;10.15;6.88;;;14.40;99.90;;;;;;5018892;28;20220;-62
2022/10/25 06:31:09;;;;;;;11.70;6.43;;;14.40;99.90;;;;;;5024064;28;20408;-62
2022/10/25 06:33:38;;;;;;;11.75;6.30;;;14.30;99.90;;;;;;5009584;28;20214;-62
2022/10/25 06:36:07;;;;;;;14.13;6.85;;;14.30;99.90;;;;;;5007796;28;20993;-62
2022/10/25 06:38:34;;;;;;;13.38;7.63;;;14.40;99.90;;;;;;5015825;28;20208;-62
2022/10/25 06:41:02;;;;;;;14.45;6.82;;;14.30;99.90;;;;;;5018946;28;20855;-62
2022/10/25 06:43:29;;;;;;;10.40;7.60;;;14.30;99.90;;;;;;5024456;28;20197;-62
2022/10/25 06:45:56;;;;;;;13.15;7.55;;;14.30;99.90;;;;;;5040160;28;20607;-62
2022/10/25 06:48:24;;;;;;;14.60;6.68;;;14.30;99.90;;;;;;4988508;28;20233;-62
2022/10/25 06:51:02;;;;;;;12.13;6.25;;;14.30;99.90;;;;;;5012390;28;20196;-62
2022/10/25 06:53:29;;;;;;;13.20;6.80;;;14.30;99.90;;;;;;5008120;28;20846;-62
2022/10/25 06:56:00;;;;;;;9.10;6.25;;;14.30;99.90;;;;;;5034247;28;20205;-62
2022/10/25 06:58:28;;;;;;;14.65;6.28;;;14.30;99.90;;;;;;5031926;28;20701;-62
2022/10/25 07:00:55;;;;;;;13.48;6.68;;;14.30;99.90;;;;;;5006400;28;20232;-62
2022/10/25 07:03:28;;;;;;;9.98;5.78;;;14.30;99.90;;;;;;4996627;28;20221;-62
2022/10/25 07:05:58;;;;;;;11.98;6.90;;;14.30;99.90;;;;;;5013357;28;20593;-63
2022/10/25 07:08:26;;;;;;;10.48;6.05;;;14.30;99.90;;;;;;5014009;28;20833;-63
2022/10/25 07:10:53;;;;;;;10.30;5.95;;;14.40;99.90;;;;;;5012118;28;20233;-63
2022/10/25 07:13:20;;;;;;;12.65;6.72;;;14.40;99.90;;;;;;5019895;28;20717;-62
2022/10/25 07:15:47;;;;;;;11.57;6.75;;;14.50;99.90;;;;;;5007355;28;20241;-63
2022/10/25 07:18:14;;;;;;;14.48;6.57;;;14.50;99.90;;;;;;5025189;28;20241;-63
2022/10/25 07:20:45;;;;;;;15.05;6.20;;;14.50;99.90;;;;;;4995293;28;20652;-63
2022/10/25 07:23:12;;;;;;;8.88;5.85;;;14.40;99.90;;;;;;5018909;28;20291;-62
2022/10/25 07:25:40;;;;;;;11.20;6.00;;;14.40;99.90;;;;;;5023813;28;20583;-63
2022/10/25 07:28:07;;;;;;;15.48;6.40;;;14.30;99.90;;;;;;5019099;28;20229;-63
2022/10/25 07:30:34;;;;;;;9.95;5.82;;;14.30;99.90;;;;;;5003525;28;20212;-62
2022/10/25 07:33:02;;;;;;;8.65;5.05;;;14.50;99.90;;;;;;5032402;28;20656;-63
2022/10/25 07:35:29;;;;;;;14.05;7.00;;;14.90;99.90;;;;;;4996172;28;20239;-63
2022/10/25 07:37:55;;;;;;;19.70;6.07;;;14.90;99.90;;;;;;5034435;23;20243;-63
2022/10/25 07:40:22;;;;;;;12.82;6.22;;;15.00;99.90;;;;;;5002581;28;20220;-62
2022/10/25 07:42:50;;;;;;;10.77;5.53;;;15.00;99.90;;;;;;5036609;28;20221;-63
2022/10/25 07:45:17;;;;;;;11.40;6.40;;;15.00;99.90;;;;;;5025191;28;20323;-62
2022/10/25 07:47:44;;;;;;;9.25;5.70;;;15.00;99.90;;;;;;5025968;28;20228;-63
2022/10/25 07:50:11;;;;;;;11.52;5.93;;;14.90;99.90;;;;;;5011195;28;20213;-62
2022/10/25 07:52:37;;;;;;;12.57;6.40;;;14.80;99.90;;;;;;5033885;28;20209;-63
2022/10/25 07:55:05;;;;;;;11.07;6.07;;;14.80;99.90;;;;;;5013417;28;21207;-63
2022/10/25 07:57:32;;;;;;;11.55;6.07;;;14.70;99.90;;;;;;5028037;28;20475;-62
2022/10/25 08:00:00;;;;;;;8.10;6.22;;;14.80;99.90;;;;;;5021172;28;20192;-63
2022/10/25 08:02:26;;;;;;;11.20;7.50;;;14.70;99.90;;;;;;5027790;28;20381;-63
2022/10/25 08:04:53;;;;;;;9.52;7.25;;;14.70;99.90;;;;;;5046128;28;20197;-63
2022/10/25 08:07:20;;;;;;;11.95;7.63;;;14.70;99.90;;;;;;5009181;28;20232;-63
2022/10/25 08:09:47;;;;;;;12.35;6.40;;;14.80;99.90;;;;;;5018802;28;20209;-63
2022/10/25 08:12:14;;;;;;;8.45;6.28;;;14.80;99.90;;;;;;5026144;28;20205;-62
2022/10/25 08:14:41;;;;;;;17.05;7.05;;;14.80;99.90;;;;;;5036871;28;20310;-63
2022/10/25 08:17:09;;;;;;;11.90;6.65;;;14.80;99.90;;;;;;5040245;28;20204;-63
2022/10/25 08:19:36;;;;;;;19.25;6.97;;;14.90;99.90;;;;;;5015318;28;20397;-63
2022/10/25 08:22:02;;;;;;;13.38;7.38;;;14.70;99.90;;;;;;4999582;28;20796;-62
2022/10/25 08:24:30;;;;;;;11.48;5.57;;;14.70;99.90;;;;;;5012741;28;20824;-63
2022/10/25 08:26:56;;;;;;;13.23;6.38;;;14.80;99.90;;;;;;5002612;28;20227;-63
2022/10/25 08:29:23;;;;;;;16.70;6.32;;;14.70;99.90;;;;;;5013009;28;20587;-62
2022/10/25 08:31:50;;;;;;;12.25;6.65;;;14.80;99.90;;;;;;5029523;28;20210;-61
2022/10/25 08:34:18;;;;;;;15.70;6.63;;;14.80;99.90;;;;;;5021877;28;20212;-62
2022/10/25 08:36:45;;;;;;;12.43;6.43;;;14.80;99.90;;;;;;5005430;28;20299;-62
2022/10/25 08:39:12;;;;;;;10.90;5.68;;;14.90;99.90;;;;;;5028218;28;20240;-62
2022/10/25 08:41:47;;;;;;;13.93;6.43;;;14.90;99.90;;;;;;5006350;28;20608;-61
2022/10/25 08:44:28;;;;;;;10.93;6.20;;;14.90;99.90;;;;;;5019005;28;20207;-61
2022/10/25 08:47:00;;;;;;;11.48;6.15;;;14.80;99.90;;;;;;5026037;28;20220;-61
2022/10/25 08:49:37;;;;;;;11.52;5.70;;;14.80;99.90;;;;;;5028734;28;20585;-62
2022/10/25 08:52:18;;;;;;;13.52;5.78;;;14.80;99.90;;;;;;5019912;28;20216;-61
2022/10/25 08:54:45;;;;;;;15.32;6.22;;;14.80;99.90;;;;;;5033477;28;20591;-62
2022/10/25 08:57:22;;;;;;;13.80;5.75;;;14.90;99.90;;;;;;5008986;28;21157;-62
2022/10/25 08:59:51;;;;;;;10.73;5.32;;;14.90;99.90;;;;;;5032582;28;20228;-62
2022/10/25 09:02:24;;;;;;;12.43;4.97;;;14.90;99.90;;;;;;5025728;28;20209;-61
2022/10/25 09:04:53;;;;;;;12.30;5.40;;;14.90;99.90;;;;;;5040940;28;20208;-62
2022/10/25 09:07:46;;;;;;;11.82;5.13;;;14.90;99.90;;;;;;5046992;28;20232;-61
2022/10/25 09:10:22;;;;;;;11.68;5.22;;;15.00;99.90;;;;;;5024108;28;20648;-61
2022/10/25 09:12:57;;;;;;;13.32;4.90;;;15.10;99.90;;;;;;5017357;28;20411;-62
2022/10/25 09:15:36;;;;;;;9.02;4.45;;;15.10;99.90;;;;;;5056761;22;20228;-62
2022/10/25 09:18:19;;;;;;;10.88;4.55;;;15.10;99.90;;;;;;5028959;28;20321;-62
2022/10/25 09:20:50;;;;;;;10.07;4.45;;;15.00;99.90;;;;;;5022939;28;20709;-62
2022/10/25 09:23:25;;;;;;;15.43;5.38;;;15.00;99.90;;;;;;5003559;28;20205;-62
2022/10/25 09:26:00;;;;;;;11.63;4.80;;;15.00;99.90;;;;;;5064021;22;20240;-62
2022/10/25 09:28:49;;;;;;;9.13;5.20;;;15.00;99.90;;;;;;5029298;28;20232;-62
2022/10/25 09:31:23;;;;;;;9.65;4.38;;;15.10;99.90;;;;;;5042450;28;20231;-62
2022/10/25 09:33:53;;;;;;;13.63;4.65;;;15.00;99.90;;;;;;5024802;28;20232;-62
2022/10/25 09:36:22;;;;;;;9.23;4.22;;;15.00;99.90;;;;;;5029502;28;20423;-61
2022/10/25 09:38:53;;;;;;;12.77;5.05;;;15.00;99.90;;;;;;5001612;28;20702;-62
2022/10/25 09:41:24;;;;;;;9.80;4.13;;;15.10;99.90;;;;;;5017503;28;20306;-62
2022/10/25 09:43:57;;;;;;;16.92;4.47;;;15.20;99.90;;;;;;5006706;28;20226;-62
2022/10/25 09:46:30;;;;;;;11.57;4.15;;;15.20;99.90;;;;;;5031891;28;20212;-62
2022/10/25 09:49:01;;;;;;;9.52;3.80;;;15.20;99.90;;;;;;5022782;28;20237;-62
2022/10/25 09:51:35;;;;;;;10.48;4.45;;;15.20;99.90;;;;;;5035082;28;20243;-62
2022/10/25 09:54:10;;;;;;;9.13;4.20;;;15.20;99.90;;;;;;5002661;28;22017;-62
2022/10/25 09:56:39;;;;;;;12.23;4.20;;;15.10;99.90;;;;;;5024855;28;20226;-62
2022/10/25 09:59:05;;;;;;;9.55;3.50;;;15.20;99.90;;;;;;5016052;28;20483;-62
2022/10/25 10:01:36;;;;;;;10.18;4.05;;;15.20;99.90;;;;;;5012880;28;20288;-62
2022/10/25 10:04:22;;;;;;;11.88;3.92;;;15.20;99.90;;;;;;5035375;22;20422;-63
2022/10/25 10:06:53;;;;;;;8.60;4.28;;;15.20;99.90;;;;;;5025180;28;20224;-63
2022/10/25 10:09:20;;;;;;;12.15;3.95;;;15.10;99.90;;;;;;5042702;28;20231;-63
2022/10/25 10:11:47;;;;;;;12.07;3.78;;;15.10;99.90;;;;;;4997952;28;20244;-63
2022/10/25 10:14:30;;;;;;;17.15;4.03;;;15.10;99.90;;;;;;5032492;28;20205;-63
2022/10/25 10:16:57;;;;;;;9.60;3.45;;;15.10;99.90;;;;;;5026034;28;20459;-63
2022/10/25 10:19:26;;;;;;;10.27;4.15;;;15.10;99.90;;;;;;5027633;28;20335;-62
2022/10/25 10:21:56;;;;;;;8.50;3.80;;;15.10;99.90;;;;;;5026625;28;20217;-63
2022/10/25 10:24:27;;;;;;;13.07;3.80;;;15.10;99.90;;;;;;5031646;28;20224;-63
2022/10/25 10:26:57;;;;;;;13.27;3.90;;;15.10;99.90;;;;;;5011077;28;20686;-62
2022/10/25 10:29:25;;;;;;;10.52;4.05;;;15.10;99.90;;;;;;5002624;28;20227;-63
2022/10/25 10:31:54;;;;;;;12.20;3.88;;;15.10;99.90;;;;;;5018124;28;20233;-63
2022/10/25 10:34:25;;;;;;;7.38;3.50;;;15.00;99.90;;;;;;5025593;28;20212;-63
2022/10/25 10:37:13;;;;;;;10.07;3.60;;;14.90;99.90;;;;;;5029308;28;20318;-63
2022/10/25 10:39:49;;;;;;;11.98;3.53;;;14.90;99.90;;;;;;5038616;28;20216;-63
2022/10/25 10:42:17;;;;;;;13.55;3.88;;;15.00;99.90;;;;;;5009895;28;20683;-63
2022/10/25 10:45:01;;;;;;;12.43;3.47;;;15.00;99.90;;;;;;5000531;28;20227;-63
2022/10/25 10:47:33;;;;;;;8.88;3.63;;;15.00;99.90;;;;;;5032919;28;20745;-63
2022/10/25 10:50:01;;;;;;;6.75;3.10;;;15.00;99.90;;;;;;5021444;28;20216;-63
2022/10/25 10:52:35;;;;;;;7.50;3.78;;;15.00;99.90;;;;;;5032140;28;20235;-62
2022/10/25 10:55:03;;;;;;;12.18;3.55;;;15.00;99.90;;;;;;5021472;28;20980;-62
2022/10/25 10:57:32;;;;;;;8.85;3.53;;;15.10;99.90;;;;;;5009487;28;20662;-63
2022/10/25 11:00:00;;;;;;;14.70;3.97;;;15.20;99.90;;;;;;5030699;28;20216;-62
2022/10/25 11:02:36;;;;;;;7.05;3.20;;;15.20;99.90;;;;;;5021049;28;20788;-62
2022/10/25 11:05:17;;;;;;;11.13;3.30;;;15.20;99.90;;;;;;5019277;28;20751;-62
2022/10/25 11:07:45;;;;;;;7.07;3.33;;;15.30;99.90;;;;;;5037234;28;20216;-62
2022/10/25 11:10:24;;;;;;;6.18;3.17;;;15.20;99.90;;;;;;5020754;28;20225;-62
2022/10/25 11:13:09;;;;;;;6.28;2.40;;;15.20;99.90;;;;;;5005797;28;20224;-62
2022/10/25 11:15:57;;;;;;;8.35;2.88;;;15.20;99.90;;;;;;5017094;28;20235;-63
2022/10/25 11:18:30;;;;;;;9.30;2.88;;;15.30;99.90;;;;;;4992968;28;20212;-62
2022/10/25 11:21:02;;;;;;;11.20;3.20;;;15.20;99.90;;;;;;5019366;28;20205;-62
2022/10/25 11:23:38;;;;;;;8.73;2.92;;;15.20;99.90;;;;;;5031340;28;20334;-62
2022/10/25 11:26:13;;;;;;;6.88;3.35;;;15.20;99.90;;;;;;5042245;28;20568;-62
2022/10/25 11:28:47;;;;;;;9.43;3.22;;;15.10;99.90;;;;;;5007249;28;20228;-62
2022/10/25 11:31:23;;;;;;;13.00;3.50;;;15.10;99.90;;;;;;5008453;28;20220;-62
2022/10/25 11:34:01;;;;;;;9.48;3.70;;;15.10;99.90;;;;;;5045298;28;20200;-62
2022/10/25 11:36:42;;;;;;;11.88;3.47;;;15.00;99.90;;;;;;5031074;28;20259;-62
2022/10/25 11:39:36;;;;;;;12.90;3.70;;;15.00;99.90;;;;;;5027388;28;20228;-62
2022/10/25 11:42:16;;;;;;;7.00;3.47;;;15.00;99.90;;;;;;5026949;28;20227;-62
2022/10/25 11:45:17;;;;;;;12.73;3.90;;;15.00;99.90;;;;;;5010623;28;20221;-62
2022/10/25 11:47:51;;;;;;;13.48;4.05;;;15.00;99.90;;;;;;5000361;28;20208;-63
2022/10/25 11:50:28;;;;;;;13.30;4.18;;;15.20;99.90;;;;;;5041280;28;20198;-63
2022/10/25 11:53:16;;;;;;;9.13;3.67;;;15.40;99.90;;;;;;5037015;28;20220;-62
2022/10/25 11:55:50;;;;;;;9.82;3.70;;;15.50;99.90;;;;;;5030144;28;20228;-62
2022/10/25 11:58:34;;;;;;;9.68;3.28;;;15.70;99.90;;;;;;5035778;28;20968;-62
2022/10/25 12:01:13;;;;;;;9.00;3.42;;;15.80;99.90;;;;;;5004795;28;20227;-63
2022/10/25 12:03:51;;;;;;;8.30;2.75;;;15.80;99.90;;;;;;4996645;28;20201;-62
2022/10/25 12:06:24;;;;;;;12.27;3.33;;;15.90;99.90;;;;;;5023755;28;20231;-62
2022/10/25 12:09:01;;;;;;;7.82;3.15;;;15.90;99.90;;;;;;5006148;28;20279;-62
2022/10/25 12:11:33;;;;;;;8.48;3.20;;;15.90;99.90;;;;;;5019388;28;20234;-62
2022/10/25 12:14:04;;;;;;;8.85;3.08;;;15.80;99.90;;;;;;5023018;28;20221;-62
2022/10/25 12:16:34;;;;;;;8.43;2.90;;;15.70;99.90;;;;;;5008081;28;20204;-62
2022/10/25 12:19:08;;;;;;;14.57;3.60;;;15.70;99.90;;;;;;5001760;28;20240;-62
2022/10/25 12:21:42;;;;;;;9.48;3.70;;;15.70;99.90;;;;;;5032151;28;20262;-62
2022/10/25 12:24:16;;;;;;;8.82;3.38;;;15.70;99.90;;;;;;5014604;28;20266;-62
2022/10/25 12:26:46;;;;;;;8.25;3.00;;;15.70;99.90;;;;;;5028031;28;20232;-62
2022/10/25 12:29:17;;;;;;;3.17;2.50;;;15.80;99.90;;;;;;5026796;28;20227;-62
2022/10/25 12:31:49;;;;;;;6.80;2.92;;;15.80;99.90;;;;;;4999057;28;20801;-62
2022/10/25 12:34:22;;;;;;;5.18;2.30;;;15.80;99.90;;;;;;5008524;28;20232;-62
2022/10/25 12:36:52;;;;;;;5.97;2.50;;;15.90;99.90;;;;;;5033590;28;20624;-62
2022/10/25 12:39:23;;;;;;;6.22;2.72;;;15.90;99.90;;;;;;5008451;28;20205;-62
2022/10/25 12:41:56;;;;;;;5.13;2.50;;;15.90;99.90;;;;;;5024364;28;20564;-62
2022/10/25 12:44:41;;;;;;;6.82;2.80;;;16.00;99.90;;;;;;5031969;28;20242;-62
2022/10/25 12:47:29;;;;;;;5.18;2.67;;;15.90;99.90;;;;;;5011393;28;20228;-62
2022/10/25 12:50:10;;;;;;;4.75;2.35;;;15.90;99.90;;;;;;5011327;28;20951;-62
2022/10/25 12:52:39;;;;;;;9.70;3.15;;;15.90;99.90;;;;;;5037157;28;20541;-62
2022/10/25 12:55:38;;;;;;;7.43;3.22;;;15.90;99.90;;;;;;5015594;28;20193;-62
2022/10/25 12:58:20;;;;;;;9.35;2.67;;;15.90;99.90;;;;;;5026499;28;20507;-62